createdAt,value
2019-01-02T00:00:32.768Z,1023.71
2019-01-02T00:01:32.329Z,1023.73
2019-01-02T00:02:32.263Z,1023.77
2019-01-02T00:03:32.497Z,1023.78
2019-01-02T00:04:32.232Z,1023.84
2019-01-02T00:05:32.220Z,1023.87
2019-01-02T00:06:32.324Z,1023.90
2019-01-02T00:07:32.294Z,1023.92
2019-01-02T00:08:32.441Z,1024.03
2019-01-02T00:09:32.427Z,1023.98
2019-01-02T00:10:32.179Z,1023.92
2019-01-02T00:11:32.171Z,1023.99
2019-01-02T00:12:32.177Z,1023.99
2019-01-02T00:13:32.136Z,1024.05
2019-01-02T00:14:32.120Z,1024.12
2019-01-02T00:15:32.127Z,1024.07
2019-01-02T00:16:32.124Z,1024.06
2019-01-02T00:17:32.092Z,1024.07
2019-01-02T00:18:32.078Z,1024.12
2019-01-02T00:19:32.334Z,1024.07
2019-01-02T00:20:32.056Z,1024.08
2019-01-02T00:21:32.404Z,1024.14
2019-01-02T00:22:32.037Z,1024.16
2019-01-02T00:23:32.037Z,1024.12
2019-01-02T00:24:32.020Z,1024.13
2019-01-02T00:25:32.022Z,1024.22
2019-01-02T00:26:32.002Z,1024.15
2019-01-02T00:27:31.978Z,1024.19
2019-01-02T00:28:32.214Z,1024.21
2019-01-02T00:29:31.961Z,1024.19
2019-01-02T00:30:32.033Z,1024.20
2019-01-02T00:31:32.208Z,1024.24
2019-01-02T00:32:31.944Z,1024.19
2019-01-02T00:33:31.937Z,1024.11
2019-01-02T00:34:31.899Z,1024.05
2019-01-02T00:35:31.934Z,1024.09
2019-01-02T00:36:31.876Z,1024.13
2019-01-02T00:37:31.882Z,1024.10
2019-01-02T00:38:31.896Z,1024.14
2019-01-02T00:39:31.892Z,1024.09
2019-01-02T00:40:31.837Z,1024.11
2019-01-02T00:41:32.079Z,1024.05
2019-01-02T00:42:31.818Z,1024.05
2019-01-02T00:43:31.802Z,1024.02
2019-01-02T00:44:31.797Z,1024.05
2019-01-02T00:45:31.791Z,1024.04
2019-01-02T00:46:31.784Z,1024.10
2019-01-02T00:47:31.761Z,1024.11
2019-01-02T00:48:31.752Z,1024.09
2019-01-02T00:49:31.742Z,1024.13
2019-01-02T00:50:31.751Z,1024.20
2019-01-02T00:51:31.717Z,1024.26
2019-01-02T00:52:31.978Z,1024.18
2019-01-02T00:53:31.752Z,1024.26
2019-01-02T00:54:31.687Z,1024.29
2019-01-02T00:55:31.677Z,1024.26
2019-01-02T00:56:31.663Z,1024.20
2019-01-02T00:57:31.662Z,1024.26
2019-01-02T00:58:31.651Z,1024.30
2019-01-02T00:59:31.889Z,1024.27
2019-01-02T01:00:32.831Z,1024.26
2019-01-02T01:01:31.608Z,1024.26
2019-01-02T01:02:31.605Z,1024.27
2019-01-02T01:03:31.605Z,1024.28
2019-01-02T01:04:31.573Z,1024.26
2019-01-02T01:05:31.596Z,1024.24
2019-01-02T01:06:31.798Z,1024.24
2019-01-02T01:07:31.542Z,1024.26
2019-01-02T01:08:31.537Z,1024.24
2019-01-02T01:09:31.603Z,1024.26
2019-01-02T01:10:31.524Z,1024.31
2019-01-02T01:11:31.498Z,1024.35
2019-01-02T01:12:31.489Z,1024.42
2019-01-02T01:13:31.476Z,1024.39
2019-01-02T01:14:31.470Z,1024.40
2019-01-02T01:15:31.464Z,1024.42
2019-01-02T01:16:31.443Z,1024.46
2019-01-02T01:17:31.436Z,1024.53
2019-01-02T01:18:31.674Z,1024.47
2019-01-02T01:19:31.407Z,1024.43
2019-01-02T01:20:31.399Z,1024.49
2019-01-02T01:21:31.386Z,1024.51
2019-01-02T01:22:31.392Z,1024.52
2019-01-02T01:23:31.364Z,1024.54
2019-01-02T01:24:31.613Z,1024.59
2019-01-02T01:25:31.347Z,1024.57
2019-01-02T01:26:31.337Z,1024.59
2019-01-02T01:27:31.373Z,1024.64
2019-01-02T01:28:31.316Z,1024.63
2019-01-02T01:29:31.301Z,1024.73
2019-01-02T01:30:31.306Z,1024.70
2019-01-02T01:31:31.286Z,1024.69
2019-01-02T01:32:31.286Z,1024.71
2019-01-02T01:33:31.517Z,1024.72
2019-01-02T01:34:31.249Z,1024.68
2019-01-02T01:35:31.234Z,1024.69
2019-01-02T01:36:31.227Z,1024.72
2019-01-02T01:37:31.229Z,1024.72
2019-01-02T01:38:31.258Z,1024.68
2019-01-02T01:39:31.204Z,1024.67
2019-01-02T01:40:31.244Z,1024.73
2019-01-02T01:41:31.422Z,1024.71
2019-01-02T01:42:31.172Z,1024.71
2019-01-02T01:43:31.171Z,1024.76
2019-01-02T01:44:31.187Z,1024.74
2019-01-02T01:45:31.135Z,1024.78
2019-01-02T01:46:31.123Z,1024.81
2019-01-02T01:47:31.150Z,1024.76
2019-01-02T01:48:31.102Z,1024.71
2019-01-02T01:49:31.099Z,1024.72
2019-01-02T01:50:31.326Z,1024.74
2019-01-02T01:51:31.075Z,1024.70
2019-01-02T01:52:31.064Z,1024.71
2019-01-02T01:53:31.040Z,1024.76
2019-01-02T01:54:31.032Z,1024.80
2019-01-02T01:55:31.025Z,1024.82
2019-01-02T01:56:31.012Z,1024.84
2019-01-02T01:57:31.026Z,1024.82
2019-01-02T01:58:30.986Z,1024.82
2019-01-02T01:59:31.233Z,1024.79
2019-01-02T02:00:30.973Z,1024.72
2019-01-02T02:01:30.960Z,1024.77
2019-01-02T02:02:30.955Z,1024.72
2019-01-02T02:03:30.940Z,1024.78
2019-01-02T02:04:31.240Z,1024.73
2019-01-02T02:05:30.920Z,1024.85
2019-01-02T02:06:30.913Z,1024.76
2019-01-02T02:07:30.909Z,1024.67
2019-01-02T02:08:31.133Z,1024.73
2019-01-02T02:09:30.903Z,1024.81
2019-01-02T02:10:31.363Z,1024.78
2019-01-02T02:11:30.844Z,1024.87
2019-01-02T02:12:30.846Z,1024.80
2019-01-02T02:13:31.151Z,1024.77
2019-01-02T02:14:30.824Z,1024.84
2019-01-02T02:15:30.805Z,1024.83
2019-01-02T02:16:31.044Z,1024.74
2019-01-02T02:17:30.784Z,1024.81
2019-01-02T02:18:30.774Z,1024.76
2019-01-02T02:19:30.790Z,1024.76
2019-01-02T02:20:30.815Z,1024.89
2019-01-02T02:21:30.741Z,1024.92
2019-01-02T02:22:30.984Z,1024.84
2019-01-02T02:23:30.811Z,1024.90
2019-01-02T02:24:30.711Z,1024.89
2019-01-02T02:25:30.702Z,1024.88
2019-01-02T02:26:30.683Z,1024.81
2019-01-02T02:27:30.755Z,1024.76
2019-01-02T02:28:30.909Z,1024.87
2019-01-02T02:29:30.650Z,1024.78
2019-01-02T02:30:30.644Z,1024.81
2019-01-02T02:31:30.629Z,1024.89
2019-01-02T02:32:30.613Z,1024.81
2019-01-02T02:33:30.613Z,1024.85
2019-01-02T02:34:30.591Z,1024.96
2019-01-02T02:35:30.589Z,1024.84
2019-01-02T02:36:30.578Z,1024.88
2019-01-02T02:37:30.580Z,1024.85
2019-01-02T02:38:30.574Z,1024.81
2019-01-02T02:39:30.553Z,1024.76
2019-01-02T02:40:30.531Z,1024.75
2019-01-02T02:41:30.522Z,1024.85
2019-01-02T02:42:30.531Z,1024.77
2019-01-02T02:43:30.514Z,1024.86
2019-01-02T02:44:30.492Z,1024.87
2019-01-02T02:45:30.479Z,1024.93
2019-01-02T02:46:30.564Z,1024.98
2019-01-02T02:47:30.453Z,1025.00
2019-01-02T02:48:30.499Z,1025.02
2019-01-02T02:49:30.730Z,1024.97
2019-01-02T02:50:30.695Z,1024.94
2019-01-02T02:51:30.412Z,1024.95
2019-01-02T02:52:30.403Z,1024.92
2019-01-02T02:53:30.416Z,1024.88
2019-01-02T02:54:30.401Z,1025.00
2019-01-02T02:55:30.366Z,1024.90
2019-01-02T02:56:30.353Z,1024.89
2019-01-02T02:57:30.622Z,1024.91
2019-01-02T02:58:30.365Z,1024.97
2019-01-02T02:59:30.331Z,1024.92
2019-01-02T03:00:30.312Z,1024.90
2019-01-02T03:01:30.318Z,1024.91
2019-01-02T03:02:30.295Z,1024.91
2019-01-02T03:03:30.289Z,1024.85
2019-01-02T03:04:30.276Z,1024.96
2019-01-02T03:05:30.259Z,1024.85
2019-01-02T03:06:30.256Z,1024.80
2019-01-02T03:07:30.500Z,1024.74
2019-01-02T03:08:30.241Z,1024.83
2019-01-02T03:09:30.233Z,1024.89
2019-01-02T03:10:30.206Z,1024.95
2019-01-02T03:11:30.458Z,1025.00
2019-01-02T03:12:30.190Z,1025.03
2019-01-02T03:13:30.184Z,1025.01
2019-01-02T03:14:30.169Z,1024.98
2019-01-02T03:15:30.144Z,1024.95
2019-01-02T03:16:30.141Z,1024.92
2019-01-02T03:17:30.136Z,1024.95
2019-01-02T03:18:30.127Z,1025.05
2019-01-02T03:19:30.105Z,1025.04
2019-01-02T03:20:30.087Z,1025.01
2019-01-02T03:21:30.078Z,1024.97
2019-01-02T03:22:30.070Z,1024.98
2019-01-02T03:23:30.065Z,1024.96
2019-01-02T03:24:30.060Z,1024.95
2019-01-02T03:25:30.050Z,1025.01
2019-01-02T03:26:30.024Z,1025.00
2019-01-02T03:27:30.015Z,1024.96
2019-01-02T03:28:30.552Z,1024.93
2019-01-02T03:29:29.993Z,1024.93
2019-01-02T03:30:30.235Z,1024.88
2019-01-02T03:31:29.979Z,1024.98
2019-01-02T03:32:29.989Z,1024.96
2019-01-02T03:33:29.967Z,1024.89
2019-01-02T03:34:29.951Z,1024.81
2019-01-02T03:35:29.928Z,1024.87
2019-01-02T03:36:29.922Z,1024.85
2019-01-02T03:37:29.903Z,1024.75
2019-01-02T03:38:29.896Z,1024.75
2019-01-02T03:39:29.902Z,1024.68
2019-01-02T03:40:30.022Z,1024.64
2019-01-02T03:41:29.862Z,1024.66
2019-01-02T03:42:29.854Z,1024.65
2019-01-02T03:43:29.865Z,1024.77
2019-01-02T03:44:30.277Z,1024.86
2019-01-02T03:45:29.817Z,1024.90
2019-01-02T03:46:29.804Z,1024.88
2019-01-02T03:47:29.795Z,1024.90
2019-01-02T03:48:29.784Z,1024.90
2019-01-02T03:49:30.039Z,1024.97
2019-01-02T03:50:29.764Z,1024.91
2019-01-02T03:51:29.766Z,1024.99
2019-01-02T03:52:29.745Z,1024.95
2019-01-02T03:53:29.731Z,1025.03
2019-01-02T03:54:29.830Z,1024.98
2019-01-02T03:55:29.713Z,1024.98
2019-01-02T03:56:29.955Z,1024.98
2019-01-02T03:57:29.684Z,1025.03
2019-01-02T03:58:29.704Z,1024.90
2019-01-02T03:59:29.682Z,1024.92
2019-01-02T04:00:29.655Z,1025.03
2019-01-02T04:01:29.639Z,1024.95
2019-01-02T04:02:29.629Z,1025.06
2019-01-02T04:03:29.630Z,1024.98
2019-01-02T04:04:29.642Z,1024.96
2019-01-02T04:05:29.617Z,1024.93
2019-01-02T04:06:29.581Z,1024.96
2019-01-02T04:07:29.585Z,1024.94
2019-01-02T04:08:29.566Z,1024.93
2019-01-02T04:09:29.565Z,1024.93
2019-01-02T04:10:29.550Z,1024.94
2019-01-02T04:11:29.783Z,1025.02
2019-01-02T04:12:29.525Z,1025.03
2019-01-02T04:13:29.507Z,1025.09
2019-01-02T04:14:29.913Z,1025.01
2019-01-02T04:15:29.497Z,1025.06
2019-01-02T04:16:29.517Z,1025.09
2019-01-02T04:17:29.463Z,1025.06
2019-01-02T04:18:29.458Z,1025.03
2019-01-02T04:19:29.461Z,1025.08
2019-01-02T04:20:29.460Z,1024.99
2019-01-02T04:21:29.423Z,1025.02
2019-01-02T04:22:29.412Z,1025.05
2019-01-02T04:23:29.408Z,1025.00
2019-01-02T04:24:29.409Z,1025.08
2019-01-02T04:25:29.640Z,1025.03
2019-01-02T04:26:29.368Z,1025.04
2019-01-02T04:27:29.368Z,1025.08
2019-01-02T04:28:29.356Z,1025.03
2019-01-02T04:29:29.600Z,1025.07
2019-01-02T04:30:29.324Z,1025.15
2019-01-02T04:31:29.311Z,1025.08
2019-01-02T04:32:29.318Z,1025.15
2019-01-02T04:33:29.297Z,1025.27
2019-01-02T04:34:29.552Z,1025.21
2019-01-02T04:35:29.269Z,1025.20
2019-01-02T04:36:29.268Z,1025.17
2019-01-02T04:37:29.251Z,1025.16
2019-01-02T04:38:29.330Z,1025.24
2019-01-02T04:39:29.267Z,1025.19
2019-01-02T04:40:29.727Z,1025.23
2019-01-02T04:41:29.200Z,1025.20
2019-01-02T04:42:29.194Z,1025.21
2019-01-02T04:43:29.180Z,1025.15
2019-01-02T04:44:29.188Z,1025.18
2019-01-02T04:45:29.162Z,1025.20
2019-01-02T04:46:29.151Z,1025.15
2019-01-02T04:47:29.141Z,1025.15
2019-01-02T04:48:29.124Z,1025.18
2019-01-02T04:49:29.127Z,1025.15
2019-01-02T04:50:29.104Z,1025.21
2019-01-02T04:51:29.093Z,1025.17
2019-01-02T04:52:29.093Z,1025.20
2019-01-02T04:53:29.071Z,1025.16
2019-01-02T04:54:29.089Z,1025.17
2019-01-02T04:55:29.053Z,1025.16
2019-01-02T04:56:29.080Z,1025.18
2019-01-02T04:57:29.025Z,1025.22
2019-01-02T04:58:29.020Z,1025.21
2019-01-02T04:59:29.020Z,1025.26
2019-01-02T05:00:29.000Z,1025.16
2019-01-02T05:01:28.984Z,1025.13
2019-01-02T05:02:28.973Z,1025.14
2019-01-02T05:03:28.972Z,1025.14
2019-01-02T05:04:28.987Z,1025.16
2019-01-02T05:05:29.216Z,1025.15
2019-01-02T05:06:28.975Z,1025.11
2019-01-02T05:07:28.916Z,1025.12
2019-01-02T05:08:28.913Z,1025.04
2019-01-02T05:09:28.910Z,1025.12
2019-01-02T05:10:29.143Z,1025.10
2019-01-02T05:11:28.880Z,1025.20
2019-01-02T05:12:28.878Z,1025.16
2019-01-02T05:13:28.876Z,1025.12
2019-01-02T05:14:28.860Z,1025.15
2019-01-02T05:15:28.836Z,1025.16
2019-01-02T05:16:28.819Z,1025.24
2019-01-02T05:17:28.810Z,1025.29
2019-01-02T05:18:28.826Z,1025.21
2019-01-02T05:19:29.060Z,1025.18
2019-01-02T05:20:28.825Z,1025.17
2019-01-02T05:21:28.776Z,1025.21
2019-01-02T05:22:28.762Z,1025.29
2019-01-02T05:23:28.742Z,1025.19
2019-01-02T05:24:28.986Z,1025.23
2019-01-02T05:25:28.974Z,1025.25
2019-01-02T05:26:28.710Z,1025.18
2019-01-02T05:27:28.951Z,1025.28
2019-01-02T05:28:28.951Z,1025.21
2019-01-02T05:29:28.687Z,1025.23
2019-01-02T05:30:28.672Z,1025.14
2019-01-02T05:31:28.660Z,1025.28
2019-01-02T05:32:28.645Z,1025.26
2019-01-02T05:33:28.637Z,1025.23
2019-01-02T05:34:28.629Z,1025.27
2019-01-02T05:35:28.677Z,1025.24
2019-01-02T05:36:28.636Z,1025.20
2019-01-02T05:37:28.588Z,1025.27
2019-01-02T05:39:28.040Z,1025.21
2019-01-02T05:40:28.574Z,1025.20
2019-01-02T05:41:28.590Z,1025.19
2019-01-02T05:42:28.785Z,1025.14
2019-01-02T05:43:28.525Z,1025.19
2019-01-02T05:44:28.533Z,1025.20
2019-01-02T05:45:28.531Z,1025.21
2019-01-02T05:46:28.518Z,1025.20
2019-01-02T05:47:28.482Z,1025.20
2019-01-02T05:48:28.734Z,1025.24
2019-01-02T05:49:28.465Z,1025.26
2019-01-02T05:50:28.463Z,1025.24
2019-01-02T05:51:28.441Z,1025.24
2019-01-02T05:52:28.428Z,1025.23
2019-01-02T05:53:28.413Z,1025.24
2019-01-02T05:54:28.426Z,1025.32
2019-01-02T05:55:28.657Z,1025.26
2019-01-02T05:56:28.383Z,1025.30
2019-01-02T05:57:28.373Z,1025.26
2019-01-02T05:58:28.426Z,1025.27
2019-01-02T05:59:28.346Z,1025.31
2019-01-02T06:00:28.349Z,1025.34
2019-01-02T06:01:28.325Z,1025.30
2019-01-02T06:02:28.314Z,1025.38
2019-01-02T06:03:28.555Z,1025.37
2019-01-02T06:04:28.293Z,1025.35
2019-01-02T06:05:28.295Z,1025.41
2019-01-02T06:06:28.524Z,1025.46
2019-01-02T06:07:28.277Z,1025.45
2019-01-02T06:08:28.256Z,1025.46
2019-01-02T06:09:28.234Z,1025.47
2019-01-02T06:10:28.248Z,1025.47
2019-01-02T06:11:28.224Z,1025.46
2019-01-02T06:12:28.201Z,1025.54
2019-01-02T06:13:28.197Z,1025.48
2019-01-02T06:14:28.192Z,1025.56
2019-01-02T06:15:28.187Z,1025.55
2019-01-02T06:16:28.160Z,1025.52
2019-01-02T06:17:28.146Z,1025.50
2019-01-02T06:18:28.412Z,1025.52
2019-01-02T06:19:28.150Z,1025.48
2019-01-02T06:20:28.172Z,1025.56
2019-01-02T06:21:28.122Z,1025.58
2019-01-02T06:22:28.105Z,1025.57
2019-01-02T06:23:28.095Z,1025.56
2019-01-02T06:24:28.083Z,1025.54
2019-01-02T06:25:28.078Z,1025.55
2019-01-02T06:26:28.051Z,1025.60
2019-01-02T06:27:28.038Z,1025.57
2019-01-02T06:28:28.284Z,1025.54
2019-01-02T06:29:28.032Z,1025.53
2019-01-02T06:30:28.034Z,1025.51
2019-01-02T06:31:28.017Z,1025.49
2019-01-02T06:32:27.992Z,1025.52
2019-01-02T06:33:27.981Z,1025.52
2019-01-02T06:34:27.971Z,1025.61
2019-01-02T06:35:28.035Z,1025.63
2019-01-02T06:36:28.491Z,1025.62
2019-01-02T06:37:27.944Z,1025.66
2019-01-02T06:38:27.943Z,1025.67
2019-01-02T06:39:28.160Z,1025.67
2019-01-02T06:40:27.927Z,1025.67
2019-01-02T06:41:27.890Z,1025.67
2019-01-02T06:42:27.906Z,1025.66
2019-01-02T06:43:27.885Z,1025.68
2019-01-02T06:44:27.855Z,1025.70
2019-01-02T06:45:27.876Z,1025.70
2019-01-02T06:46:27.845Z,1025.72
2019-01-02T06:47:28.001Z,1025.74
2019-01-02T06:48:27.810Z,1025.76
2019-01-02T06:49:27.798Z,1025.75
2019-01-02T06:50:27.809Z,1025.72
2019-01-02T06:51:27.792Z,1025.68
2019-01-02T06:52:27.781Z,1025.65
2019-01-02T06:53:27.767Z,1025.71
2019-01-02T06:54:28.011Z,1025.72
2019-01-02T06:55:27.771Z,1025.65
2019-01-02T06:56:28.054Z,1025.64
2019-01-02T06:57:27.783Z,1025.67
2019-01-02T06:58:27.709Z,1025.73
2019-01-02T06:59:27.699Z,1025.79
2019-01-02T07:00:27.701Z,1025.89
2019-01-02T07:01:27.931Z,1025.83
2019-01-02T07:02:27.678Z,1026.00
2019-01-02T07:03:27.648Z,1025.94
2019-01-02T07:04:27.637Z,1025.92
2019-01-02T07:05:27.626Z,1025.93
2019-01-02T07:06:27.622Z,1025.96
2019-01-02T07:07:31.194Z,1025.94
2019-01-02T07:08:27.603Z,1025.93
2019-01-02T07:09:27.600Z,1025.95
2019-01-02T07:10:27.835Z,1026.00
2019-01-02T07:11:29.780Z,1025.93
2019-01-02T07:12:27.551Z,1025.98
2019-01-02T07:13:27.567Z,1026.01
2019-01-02T07:14:27.789Z,1025.99
2019-01-02T07:15:27.784Z,1026.06
2019-01-02T07:16:27.763Z,1025.99
2019-01-02T07:17:27.751Z,1026.10
2019-01-02T07:18:27.491Z,1026.03
2019-01-02T07:19:27.640Z,1025.98
2019-01-02T07:20:27.467Z,1026.07
2019-01-02T07:21:27.471Z,1026.03
2019-01-02T07:22:27.482Z,1026.15
2019-01-02T07:23:27.436Z,1026.16
2019-01-02T07:24:27.427Z,1026.17
2019-01-02T07:25:27.413Z,1026.16
2019-01-02T07:26:27.410Z,1026.22
2019-01-02T07:27:27.753Z,1026.15
2019-01-02T07:28:27.375Z,1026.19
2019-01-02T07:29:27.375Z,1026.16
2019-01-02T07:30:28.519Z,1026.29
2019-01-02T07:31:27.643Z,1026.23
2019-01-02T07:32:27.344Z,1026.18
2019-01-02T07:33:27.328Z,1026.20
2019-01-02T07:34:27.313Z,1026.22
2019-01-02T07:35:27.306Z,1026.25
2019-01-02T07:36:27.300Z,1026.25
2019-01-02T07:37:27.627Z,1026.26
2019-01-02T07:38:27.287Z,1026.31
2019-01-02T07:39:27.505Z,1026.31
2019-01-02T07:40:27.306Z,1026.29
2019-01-02T07:41:27.252Z,1026.26
2019-01-02T07:42:27.491Z,1026.37
2019-01-02T07:43:27.472Z,1026.35
2019-01-02T07:44:27.207Z,1026.37
2019-01-02T07:45:27.194Z,1026.44
2019-01-02T07:46:27.207Z,1026.47
2019-01-02T07:47:27.172Z,1026.46
2019-01-02T07:48:27.155Z,1026.48
2019-01-02T07:49:28.621Z,1026.47
2019-01-02T07:50:27.404Z,1026.55
2019-01-02T07:51:27.144Z,1026.54
2019-01-02T07:52:27.119Z,1026.47
2019-01-02T07:53:28.262Z,1026.51
2019-01-02T07:54:27.092Z,1026.49
2019-01-02T07:55:27.140Z,1026.51
2019-01-02T07:56:27.963Z,1026.53
2019-01-02T07:57:27.207Z,1026.52
2019-01-02T07:58:27.314Z,1026.54
2019-01-02T07:59:27.040Z,1026.63
2019-01-02T08:00:27.026Z,1026.61
2019-01-02T08:01:27.305Z,1026.58
2019-01-02T08:02:27.039Z,1026.61
2019-01-02T08:03:26.995Z,1026.56
2019-01-02T08:04:26.982Z,1026.63
2019-01-02T08:05:27.225Z,1026.62
2019-01-02T08:06:26.962Z,1026.66
2019-01-02T08:07:26.955Z,1026.66
2019-01-02T08:08:27.184Z,1026.67
2019-01-02T08:09:29.414Z,1026.65
2019-01-02T08:10:27.444Z,1026.68
2019-01-02T08:11:26.905Z,1026.72
2019-01-02T08:12:27.165Z,1026.74
2019-01-02T08:13:26.898Z,1026.74
2019-01-02T08:14:26.873Z,1026.69
2019-01-02T08:15:26.879Z,1026.70
2019-01-02T08:16:26.853Z,1026.68
2019-01-02T08:17:26.843Z,1026.70
2019-01-02T08:18:27.081Z,1026.71
2019-01-02T08:19:26.822Z,1026.61
2019-01-02T08:20:26.823Z,1026.73
2019-01-02T08:21:26.796Z,1026.65
2019-01-02T08:22:26.798Z,1026.74
2019-01-02T08:23:26.790Z,1026.59
2019-01-02T08:24:29.016Z,1026.55
2019-01-02T08:25:26.751Z,1026.58
2019-01-02T08:26:26.779Z,1026.60
2019-01-02T08:27:26.749Z,1026.68
2019-01-02T08:28:27.136Z,1026.69
2019-01-02T08:29:27.359Z,1026.77
2019-01-02T08:30:26.706Z,1026.75
2019-01-02T08:31:26.697Z,1026.77
2019-01-02T08:32:26.695Z,1026.83
2019-01-02T08:33:26.674Z,1026.88
2019-01-02T08:34:26.652Z,1026.89
2019-01-02T08:35:26.635Z,1026.94
2019-01-02T08:36:26.673Z,1026.93
2019-01-02T08:37:26.883Z,1026.84
2019-01-02T08:38:26.661Z,1026.86
2019-01-02T08:39:26.906Z,1026.83
2019-01-02T08:40:26.590Z,1026.76
2019-01-02T08:41:26.571Z,1026.78
2019-01-02T08:42:26.580Z,1026.79
2019-01-02T08:43:26.564Z,1026.89
2019-01-02T08:44:26.616Z,1026.91
2019-01-02T08:45:26.565Z,1026.88
2019-01-02T08:46:26.534Z,1026.95
2019-01-02T08:47:26.770Z,1026.89
2019-01-02T08:48:26.505Z,1026.94
2019-01-02T08:49:26.518Z,1026.94
2019-01-02T08:50:26.536Z,1026.95
2019-01-02T08:51:26.458Z,1026.94
2019-01-02T08:52:26.538Z,1026.92
2019-01-02T08:53:26.487Z,1026.96
2019-01-02T08:54:26.434Z,1026.95
2019-01-02T08:55:26.465Z,1026.95
2019-01-02T08:56:26.755Z,1027.02
2019-01-02T08:57:26.733Z,1027.00
2019-01-02T08:58:26.448Z,1026.99
2019-01-02T08:59:26.421Z,1027.02
2019-01-02T09:00:26.403Z,1027.06
2019-01-02T09:01:26.365Z,1027.05
2019-01-02T09:02:27.939Z,1027.07
2019-01-02T09:03:26.342Z,1027.09
2019-01-02T09:04:26.862Z,1027.14
2019-01-02T09:05:26.309Z,1027.10
2019-01-02T09:06:26.295Z,1027.14
2019-01-02T09:07:26.348Z,1027.13
2019-01-02T09:08:26.530Z,1027.13
2019-01-02T09:09:26.259Z,1027.08
2019-01-02T09:10:26.250Z,1027.03
2019-01-02T09:11:26.245Z,1027.13
2019-01-02T09:12:26.265Z,1027.04
2019-01-02T09:13:26.214Z,1027.07
2019-01-02T09:14:26.204Z,1027.09
2019-01-02T09:15:26.235Z,1027.06
2019-01-02T09:16:26.197Z,1027.11
2019-01-02T09:17:26.204Z,1027.06
2019-01-02T09:18:26.462Z,1027.10
2019-01-02T09:19:26.143Z,1027.15
2019-01-02T09:20:26.407Z,1027.16
2019-01-02T09:21:26.125Z,1027.16
2019-01-02T09:22:26.414Z,1027.12
2019-01-02T09:23:26.117Z,1027.18
2019-01-02T09:24:26.105Z,1027.20
2019-01-02T09:25:26.079Z,1027.21
2019-01-02T09:26:26.126Z,1027.16
2019-01-02T09:27:26.074Z,1027.17
2019-01-02T09:28:26.443Z,1027.19
2019-01-02T09:29:26.041Z,1027.25
2019-01-02T09:30:26.027Z,1027.20
2019-01-02T09:31:26.051Z,1027.22
2019-01-02T09:32:26.037Z,1027.18
2019-01-02T09:33:26.044Z,1027.27
2019-01-02T09:34:25.987Z,1027.21
2019-01-02T09:35:25.967Z,1027.27
2019-01-02T09:36:25.980Z,1027.29
2019-01-02T09:37:25.963Z,1027.34
2019-01-02T09:38:26.187Z,1027.33
2019-01-02T09:39:25.972Z,1027.39
2019-01-02T09:40:25.922Z,1027.42
2019-01-02T09:41:25.917Z,1027.44
2019-01-02T09:42:27.069Z,1027.44
2019-01-02T09:43:25.904Z,1027.42
2019-01-02T09:44:25.867Z,1027.39
2019-01-02T09:45:25.921Z,1027.38
2019-01-02T09:46:25.989Z,1027.27
2019-01-02T09:47:25.912Z,1027.41
2019-01-02T09:48:25.875Z,1027.33
2019-01-02T09:49:25.817Z,1027.35
2019-01-02T09:50:26.069Z,1027.31
2019-01-02T09:51:25.811Z,1027.33
2019-01-02T09:52:25.800Z,1027.34
2019-01-02T09:53:26.031Z,1027.32
2019-01-02T09:54:25.765Z,1027.33
2019-01-02T09:55:25.769Z,1027.41
2019-01-02T09:56:25.856Z,1027.48
2019-01-02T09:57:25.726Z,1027.42
2019-01-02T09:58:25.731Z,1027.38
2019-01-02T09:59:25.975Z,1027.44
2019-01-02T10:00:25.719Z,1027.41
2019-01-02T10:01:25.766Z,1027.42
2019-01-02T10:02:25.678Z,1027.44
2019-01-02T10:03:25.670Z,1027.40
2019-01-02T10:04:25.658Z,1027.43
2019-01-02T10:05:25.681Z,1027.46
2019-01-02T10:06:26.020Z,1027.50
2019-01-02T10:07:25.672Z,1027.48
2019-01-02T10:08:25.620Z,1027.39
2019-01-02T10:09:25.590Z,1027.35
2019-01-02T10:10:26.403Z,1027.40
2019-01-02T10:11:25.829Z,1027.40
2019-01-02T10:12:26.812Z,1027.36
2019-01-02T10:13:25.570Z,1027.43
2019-01-02T10:14:25.538Z,1027.36
2019-01-02T10:15:25.608Z,1027.38
2019-01-02T10:16:28.407Z,1027.37
2019-01-02T10:17:25.506Z,1027.41
2019-01-02T10:18:25.799Z,1027.38
2019-01-02T10:19:25.514Z,1027.42
2019-01-02T10:20:25.474Z,1027.41
2019-01-02T10:21:25.495Z,1027.46
2019-01-02T10:22:25.451Z,1027.43
2019-01-02T10:23:25.452Z,1027.48
2019-01-02T10:24:25.450Z,1027.47
2019-01-02T10:25:25.416Z,1027.46
2019-01-02T10:26:25.430Z,1027.49
2019-01-02T10:27:25.435Z,1027.47
2019-01-02T10:28:25.401Z,1027.50
2019-01-02T10:29:25.638Z,1027.49
2019-01-02T10:30:25.361Z,1027.47
2019-01-02T10:31:25.374Z,1027.41
2019-01-02T10:32:25.425Z,1027.37
2019-01-02T10:33:25.990Z,1027.40
2019-01-02T10:34:25.361Z,1027.43
2019-01-02T10:35:25.325Z,1027.46
2019-01-02T10:36:25.297Z,1027.42
2019-01-02T10:37:25.542Z,1027.43
2019-01-02T10:38:25.344Z,1027.47
2019-01-02T10:39:25.316Z,1027.40
2019-01-02T10:40:25.510Z,1027.37
2019-01-02T10:41:25.251Z,1027.35
2019-01-02T10:42:25.242Z,1027.33
2019-01-02T10:43:25.288Z,1027.33
2019-01-02T10:44:25.481Z,1027.34
2019-01-02T10:45:27.900Z,1027.41
2019-01-02T10:46:25.184Z,1027.43
2019-01-02T10:47:25.188Z,1027.43
2019-01-02T10:48:25.217Z,1027.41
2019-01-02T10:49:25.165Z,1027.45
2019-01-02T10:50:38.035Z,1027.41
2019-01-02T10:51:25.285Z,1027.45
2019-01-02T10:52:25.398Z,1027.45
2019-01-02T10:53:25.168Z,1027.39
2019-01-02T10:54:25.168Z,1027.44
2019-01-02T10:55:25.081Z,1027.44
2019-01-02T10:56:25.113Z,1027.43
2019-01-02T10:57:25.322Z,1027.45
2019-01-02T10:58:25.083Z,1027.38
2019-01-02T10:59:25.104Z,1027.40
2019-01-02T11:00:25.033Z,1027.43
2019-01-02T11:01:25.017Z,1027.41
2019-01-02T11:02:25.046Z,1027.41
2019-01-02T11:03:25.129Z,1027.38
2019-01-02T11:04:25.252Z,1027.38
2019-01-02T11:05:25.027Z,1027.36
2019-01-02T11:06:24.983Z,1027.32
2019-01-02T11:07:24.950Z,1027.31
2019-01-02T11:08:24.960Z,1027.29
2019-01-02T11:09:24.984Z,1027.34
2019-01-02T11:10:24.925Z,1027.26
2019-01-02T11:11:24.923Z,1027.32
2019-01-02T11:12:24.982Z,1027.30
2019-01-02T11:13:24.896Z,1027.24
2019-01-02T11:14:25.146Z,1027.26
2019-01-02T11:15:24.867Z,1027.25
2019-01-02T11:16:25.141Z,1027.26
2019-01-02T11:17:26.025Z,1027.24
2019-01-02T11:18:24.920Z,1027.30
2019-01-02T11:19:25.786Z,1027.31
2019-01-02T11:20:24.810Z,1027.37
2019-01-02T11:21:24.890Z,1027.41
2019-01-02T11:22:25.058Z,1027.34
2019-01-02T11:23:24.810Z,1027.40
2019-01-02T11:24:24.772Z,1027.39
2019-01-02T11:25:24.804Z,1027.33
2019-01-02T11:26:24.864Z,1027.36
2019-01-02T11:27:24.747Z,1027.33
2019-01-02T11:28:24.722Z,1027.37
2019-01-02T11:29:25.448Z,1027.39
2019-01-02T11:30:24.715Z,1027.39
2019-01-02T11:31:24.764Z,1027.38
2019-01-02T11:32:24.717Z,1027.44
2019-01-02T11:33:24.715Z,1027.41
2019-01-02T11:34:24.783Z,1027.39
2019-01-02T11:35:24.919Z,1027.36
2019-01-02T11:36:24.895Z,1027.37
2019-01-02T11:37:24.629Z,1027.34
2019-01-02T11:38:24.656Z,1027.35
2019-01-02T11:39:24.921Z,1027.35
2019-01-02T11:40:25.608Z,1027.38
2019-01-02T11:41:24.610Z,1027.35
2019-01-02T11:42:24.875Z,1027.32
2019-01-02T11:43:24.820Z,1027.22
2019-01-02T11:44:24.558Z,1027.27
2019-01-02T11:45:24.628Z,1027.34
2019-01-02T11:46:24.821Z,1027.34
2019-01-02T11:47:24.807Z,1027.33
2019-01-02T11:48:24.528Z,1027.34
2019-01-02T11:49:24.509Z,1027.36
2019-01-02T11:50:24.558Z,1027.41
2019-01-02T11:51:24.690Z,1027.39
2019-01-02T11:52:24.455Z,1027.42
2019-01-02T11:53:24.623Z,1027.33
2019-01-02T11:54:24.473Z,1027.43
2019-01-02T11:55:24.466Z,1027.43
2019-01-02T11:56:24.710Z,1027.42
2019-01-02T11:57:24.415Z,1027.45
2019-01-02T11:58:24.405Z,1027.40
2019-01-02T11:59:24.441Z,1027.38
2019-01-02T12:00:24.378Z,1027.38
2019-01-02T12:01:24.367Z,1027.41
2019-01-02T12:02:24.354Z,1027.48
2019-01-02T12:03:24.336Z,1027.45
2019-01-02T12:04:24.366Z,1027.41
2019-01-02T12:05:24.320Z,1027.47
2019-01-02T12:06:24.325Z,1027.48